createdAt,value
2023-04-23T00:00:42.740Z,4.90
2023-04-23T00:03:10.690Z,7.60
2023-04-23T00:05:37.962Z,5.93
2023-04-23T00:08:06.087Z,4.50
2023-04-23T00:10:32.874Z,8.15
2023-04-23T00:12:59.888Z,5.05
2023-04-23T00:15:27.348Z,4.15
2023-04-23T00:17:54.264Z,5.40
2023-04-23T00:20:21.017Z,5.13
2023-04-23T00:22:48.056Z,6.68
2023-04-23T00:25:15.008Z,5.78
2023-04-23T00:27:41.791Z,5.35
2023-04-23T00:30:09.594Z,5.65
2023-04-23T00:32:36.212Z,7.07
2023-04-23T00:35:03.175Z,10.27
2023-04-23T00:37:29.882Z,8.00
2023-04-23T00:39:56.765Z,10.60
2023-04-23T00:42:23.555Z,10.77
2023-04-23T00:44:51.339Z,8.65
2023-04-23T00:47:18.316Z,9.68
2023-04-23T00:49:45.650Z,11.35
2023-04-23T00:52:12.386Z,10.57
2023-04-23T00:54:39.291Z,14.73
2023-04-23T00:57:08.060Z,10.85
2023-04-23T00:59:36.145Z,12.77
2023-04-23T01:02:02.921Z,14.20
2023-04-23T01:04:32.237Z,11.75
2023-04-23T01:06:59.402Z,8.55
2023-04-23T01:09:27.902Z,8.25
2023-04-23T01:11:55.023Z,9.10
2023-04-23T01:14:21.621Z,7.55
2023-04-23T01:16:49.997Z,8.63
2023-04-23T01:19:16.749Z,11.07
2023-04-23T01:21:43.556Z,13.20
2023-04-23T01:24:10.900Z,11.07
2023-04-23T01:26:39.661Z,10.43
2023-04-23T01:29:07.679Z,10.40
2023-04-23T01:31:34.739Z,11.10
2023-04-23T01:34:02.031Z,9.57
2023-04-23T01:36:28.794Z,9.38
2023-04-23T01:38:55.532Z,9.55
2023-04-23T01:41:22.587Z,10.90
2023-04-23T01:43:49.620Z,11.40
2023-04-23T01:46:16.407Z,10.30
2023-04-23T01:48:43.513Z,10.07
2023-04-23T01:51:10.270Z,8.90
2023-04-23T01:53:36.927Z,9.65
2023-04-23T01:56:05.379Z,8.77
2023-04-23T01:58:32.046Z,11.13
2023-04-23T02:00:58.994Z,8.98
2023-04-23T02:03:25.855Z,8.65
2023-04-23T02:05:54.992Z,9.45
2023-04-23T02:08:22.276Z,12.55
2023-04-23T02:10:48.927Z,10.25
2023-04-23T02:13:15.856Z,9.88
2023-04-23T02:15:43.333Z,12.48
2023-04-23T02:18:10.942Z,16.05
2023-04-23T02:20:40.758Z,9.77
2023-04-23T02:23:10.466Z,12.85
2023-04-23T02:25:40.949Z,10.07
2023-04-23T02:28:08.425Z,9.23
2023-04-23T02:30:35.911Z,11.43
2023-04-23T02:33:02.720Z,9.35
2023-04-23T02:35:29.695Z,10.02
2023-04-23T02:38:15.256Z,9.82
2023-04-23T02:40:42.020Z,9.27
2023-04-23T02:43:08.720Z,10.00
2023-04-23T02:45:35.766Z,11.75
2023-04-23T02:48:02.545Z,8.98
2023-04-23T02:50:29.116Z,10.02
2023-04-23T02:52:56.258Z,9.88
2023-04-23T02:55:25.216Z,8.80
2023-04-23T02:57:52.404Z,10.10
2023-04-23T03:00:19.305Z,8.68
2023-04-23T03:02:46.774Z,10.27
2023-04-23T03:05:13.633Z,9.77
2023-04-23T03:07:40.239Z,8.88
2023-04-23T03:10:08.368Z,9.00
2023-04-23T03:12:35.605Z,9.70
2023-04-23T03:15:02.283Z,8.60
2023-04-23T03:17:29.005Z,10.35
2023-04-23T03:19:55.869Z,11.15
2023-04-23T03:22:22.408Z,10.00
2023-04-23T03:24:49.068Z,9.88
2023-04-23T03:27:15.855Z,10.80
2023-04-23T03:29:42.421Z,14.30
2023-04-23T03:32:09.141Z,9.48
2023-04-23T03:34:36.112Z,10.18
2023-04-23T03:37:02.724Z,9.93
2023-04-23T03:39:29.341Z,12.75
2023-04-23T03:41:55.963Z,11.23
2023-04-23T03:44:22.523Z,12.30
2023-04-23T03:46:49.388Z,10.50
2023-04-23T03:49:17.117Z,10.93
2023-04-23T03:51:43.766Z,11.40
2023-04-23T03:54:10.871Z,8.80
2023-04-23T03:56:37.499Z,12.68
2023-04-23T03:59:04.192Z,10.00
2023-04-23T04:01:32.789Z,8.57
2023-04-23T04:03:59.810Z,6.68
2023-04-23T04:06:26.595Z,10.30
2023-04-23T04:08:53.235Z,10.35
2023-04-23T04:11:20.009Z,7.07
2023-04-23T04:13:46.650Z,6.30
2023-04-23T04:16:13.382Z,11.20
2023-04-23T04:18:39.956Z,6.88
2023-04-23T04:21:07.900Z,7.03
2023-04-23T04:23:35.089Z,4.55
2023-04-23T04:26:02.634Z,4.53
2023-04-23T04:28:29.428Z,6.15
2023-04-23T04:30:57.656Z,4.65
2023-04-23T04:33:25.849Z,4.80
2023-04-23T04:35:52.884Z,5.15
2023-04-23T04:38:20.128Z,5.55
2023-04-23T04:40:47.172Z,4.68
2023-04-23T04:43:13.844Z,4.00
2023-04-23T04:45:40.642Z,4.20
2023-04-23T04:48:07.401Z,5.22
2023-04-23T04:50:34.184Z,5.13
2023-04-23T04:53:00.841Z,4.15
2023-04-23T04:55:27.477Z,6.70
2023-04-23T04:57:54.099Z,4.30
2023-04-23T05:00:22.718Z,4.53
2023-04-23T05:02:51.051Z,6.18
2023-04-23T05:05:18.659Z,4.07
2023-04-23T05:07:45.579Z,3.83
2023-04-23T05:10:13.287Z,3.92
2023-04-23T05:12:42.889Z,3.80
2023-04-23T05:15:13.356Z,4.05
2023-04-23T05:17:40.842Z,2.95
2023-04-23T05:20:10.947Z,4.28
2023-04-23T05:22:38.742Z,3.30
2023-04-23T05:25:06.208Z,3.80
2023-04-23T05:27:32.859Z,3.60
2023-04-23T05:29:59.727Z,3.80
2023-04-23T05:32:26.516Z,2.70
2023-04-23T05:34:53.165Z,3.45
2023-04-23T05:37:20.300Z,5.63
2023-04-23T05:39:47.053Z,5.45
2023-04-23T05:42:13.690Z,5.13
2023-04-23T05:44:42.230Z,5.03
2023-04-23T05:47:11.099Z,5.18
2023-04-23T05:49:37.695Z,4.93
2023-04-23T05:52:04.554Z,4.10
2023-04-23T05:54:31.380Z,5.72
2023-04-23T05:56:58.133Z,4.70
2023-04-23T05:59:25.021Z,5.22
2023-04-23T06:01:51.894Z,4.65
2023-04-23T06:04:18.732Z,5.60
2023-04-23T06:06:45.841Z,5.85
2023-04-23T06:09:12.688Z,5.10
2023-04-23T06:11:39.607Z,5.97
2023-04-23T06:14:06.245Z,4.75
2023-04-23T06:16:33.038Z,4.32
2023-04-23T06:18:59.731Z,7.45
2023-04-23T06:21:27.393Z,5.47
2023-04-23T06:23:54.827Z,6.55
2023-04-23T06:26:21.461Z,4.70
2023-04-23T06:28:48.183Z,5.07
2023-04-23T06:31:14.837Z,4.35
2023-04-23T06:33:41.942Z,5.25
2023-04-23T06:36:11.068Z,3.55
2023-04-23T06:38:38.627Z,3.45
2023-04-23T06:41:06.032Z,3.13
2023-04-23T06:43:32.964Z,3.15
2023-04-23T06:45:59.629Z,2.80
2023-04-23T06:48:26.995Z,2.10
2023-04-23T06:50:53.549Z,2.88
2023-04-23T06:53:20.354Z,2.92
2023-04-23T06:55:46.953Z,3.10
2023-04-23T06:58:14.847Z,2.80
2023-04-23T07:00:42.451Z,2.38
2023-04-23T07:03:09.368Z,2.42
2023-04-23T07:05:36.050Z,2.95
2023-04-23T07:08:02.710Z,4.18
2023-04-23T07:10:29.405Z,2.63
2023-04-23T07:12:56.054Z,3.35
2023-04-23T07:15:23.012Z,3.53
2023-04-23T07:17:49.697Z,2.63
2023-04-23T07:20:16.536Z,3.17
2023-04-23T07:22:43.194Z,3.75
2023-04-23T07:25:10.269Z,3.90
2023-04-23T07:27:37.394Z,3.08
2023-04-23T07:30:05.195Z,3.45
2023-04-23T07:32:31.860Z,3.22
2023-04-23T07:34:58.554Z,3.88
2023-04-23T07:37:25.334Z,3.60
2023-04-23T07:39:53.697Z,3.75
2023-04-23T07:42:20.427Z,3.03
2023-04-23T07:44:47.045Z,3.17
2023-04-23T07:47:13.684Z,3.90
2023-04-23T07:49:40.625Z,3.17
2023-04-23T07:52:08.350Z,3.03
2023-04-23T07:54:35.397Z,3.67
2023-04-23T07:57:03.164Z,2.40
2023-04-23T07:59:30.038Z,7.10
2023-04-23T08:01:56.632Z,2.65
2023-04-23T08:04:23.663Z,3.10
2023-04-23T08:06:50.686Z,6.00
2023-04-23T08:09:17.214Z,4.18
2023-04-23T08:11:44.727Z,2.88
2023-04-23T08:14:11.434Z,3.00
2023-04-23T08:16:39.078Z,3.50
2023-04-23T08:19:06.536Z,2.72
2023-04-23T08:21:33.795Z,2.90
2023-04-23T08:24:00.812Z,4.15
2023-04-23T08:26:27.472Z,3.92
2023-04-23T08:28:54.169Z,3.53
2023-04-23T08:31:26.222Z,3.00
2023-04-23T08:33:54.017Z,4.07
2023-04-23T08:36:20.730Z,3.22
2023-04-23T08:38:47.688Z,3.63
2023-04-23T08:41:15.356Z,2.90
2023-04-23T08:43:49.012Z,3.00
2023-04-23T08:46:16.847Z,5.45
2023-04-23T08:48:45.841Z,3.80
2023-04-23T08:51:17.781Z,4.70
2023-04-23T08:53:50.613Z,3.95
2023-04-23T08:56:17.297Z,4.13
2023-04-23T08:58:45.617Z,3.63
2023-04-23T09:01:12.675Z,4.32
2023-04-23T09:03:40.773Z,4.20
2023-04-23T09:06:07.872Z,3.63
2023-04-23T09:08:34.435Z,4.32
2023-04-23T09:11:02.419Z,7.22
2023-04-23T09:13:34.175Z,4.05
2023-04-23T09:16:00.954Z,4.32
2023-04-23T09:18:27.715Z,3.92
2023-04-23T09:20:54.369Z,3.75
2023-04-23T09:23:23.463Z,3.85
2023-04-23T09:25:50.202Z,3.83
2023-04-23T09:28:16.803Z,5.45
2023-04-23T09:30:45.130Z,3.78
2023-04-23T09:33:13.239Z,3.58
2023-04-23T09:35:42.686Z,3.65
2023-04-23T09:38:10.784Z,3.75
2023-04-23T09:40:38.078Z,3.25
2023-04-23T09:43:05.933Z,3.13
2023-04-23T09:45:33.004Z,3.75
2023-04-23T09:47:59.969Z,5.28
2023-04-23T09:50:32.318Z,5.57
2023-04-23T09:52:59.146Z,4.03
2023-04-23T09:55:31.121Z,4.05
2023-04-23T09:57:58.278Z,3.25
2023-04-23T10:00:26.152Z,6.47
2023-04-23T10:02:52.887Z,3.05
2023-04-23T10:05:24.938Z,4.60
2023-04-23T10:07:56.787Z,5.55
2023-04-23T10:10:24.326Z,3.22
2023-04-23T10:12:55.605Z,3.25
2023-04-23T10:15:25.477Z,3.00
2023-04-23T10:17:52.585Z,3.40
2023-04-23T10:20:22.340Z,5.10
2023-04-23T10:22:49.760Z,6.53
2023-04-23T10:25:16.603Z,3.38
2023-04-23T10:27:54.011Z,2.80
2023-04-23T10:30:22.489Z,3.05
2023-04-23T10:32:50.198Z,2.90
2023-04-23T10:35:17.356Z,6.05
2023-04-23T10:37:46.612Z,2.30
2023-04-23T10:40:15.013Z,3.55
2023-04-23T10:42:44.334Z,3.22
2023-04-23T10:47:47.826Z,4.32
2023-04-23T10:50:26.784Z,2.88
2023-04-23T10:52:54.468Z,4.43
2023-04-23T10:55:24.082Z,2.25
2023-04-23T10:58:01.615Z,2.08
2023-04-23T11:00:31.190Z,1.92
2023-04-23T11:02:58.033Z,1.67
2023-04-23T11:05:26.331Z,4.57
2023-04-23T11:08:18.880Z,5.82
2023-04-23T11:10:58.348Z,2.60
2023-04-23T11:13:27.109Z,1.42
2023-04-23T11:16:13.138Z,1.75
2023-04-23T11:19:11.380Z,1.70
2023-04-23T11:21:58.990Z,1.70
2023-04-23T11:24:29.589Z,1.80
2023-04-23T11:26:56.653Z,2.65
2023-04-23T11:29:26.340Z,1.15
2023-04-23T11:32:02.584Z,3.60
2023-04-23T11:34:30.659Z,1.10
2023-04-23T11:36:59.281Z,1.48
2023-04-23T11:39:27.089Z,1.63
2023-04-23T11:41:54.404Z,1.73
2023-04-23T11:44:21.965Z,2.92
2023-04-23T11:46:49.682Z,2.00
2023-04-23T11:49:19.787Z,5.65
2023-04-23T11:51:46.934Z,2.13
2023-04-23T11:54:14.975Z,1.67
2023-04-23T11:56:42.267Z,1.25
2023-04-23T11:59:08.984Z,1.13
2023-04-23T12:01:48.915Z,2.35
2023-04-23T12:04:19.035Z,2.17
2023-04-23T12:06:47.396Z,1.88
2023-04-23T12:09:15.890Z,1.65
2023-04-23T12:11:43.671Z,1.73
2023-04-23T12:14:12.466Z,0.73
2023-04-23T12:16:47.214Z,1.13
2023-04-23T12:19:22.341Z,0.90
2023-04-23T12:21:57.351Z,4.75
2023-04-23T12:24:29.105Z,0.93
2023-04-23T12:27:01.141Z,0.90
2023-04-23T12:29:30.159Z,2.33
2023-04-23T12:31:59.490Z,2.38
2023-04-23T12:34:26.220Z,2.40
2023-04-23T12:36:55.933Z,1.35
2023-04-23T12:39:36.476Z,1.88
2023-04-23T12:42:05.404Z,1.77
2023-04-23T12:44:34.798Z,1.65
2023-04-23T12:47:03.684Z,3.35
2023-04-23T12:49:32.337Z,1.70
2023-04-23T12:52:03.332Z,1.27
2023-04-23T12:54:37.319Z,2.88
2023-04-23T12:57:08.072Z,1.25
2023-04-23T12:59:34.900Z,0.60
2023-04-23T13:02:02.992Z,2.20
2023-04-23T13:04:31.597Z,2.55
2023-04-23T13:06:58.249Z,1.60
2023-04-23T13:09:27.088Z,0.68
2023-04-23T13:11:54.245Z,1.10
2023-04-23T13:14:21.728Z,0.70
2023-04-23T13:16:49.151Z,2.28
2023-04-23T13:19:17.451Z,1.52
2023-04-23T13:21:45.019Z,0.80
2023-04-23T13:24:11.826Z,1.35
2023-04-23T13:26:38.558Z,1.00
2023-04-23T13:29:06.746Z,0.93
2023-04-23T13:31:33.840Z,1.20
2023-04-23T13:34:03.334Z,0.60
2023-04-23T13:36:30.228Z,2.53
2023-04-23T13:38:57.292Z,1.30
2023-04-23T13:41:23.966Z,0.60
2023-04-23T13:43:50.588Z,0.82
2023-04-23T13:46:17.220Z,1.65
2023-04-23T13:48:44.098Z,0.85
2023-04-23T13:51:21.904Z,2.30
2023-04-23T13:53:53.359Z,1.45
2023-04-23T13:56:20.049Z,1.60
2023-04-23T13:58:48.518Z,0.60
2023-04-23T14:01:15.854Z,0.90
2023-04-23T14:03:42.570Z,0.70
2023-04-23T14:06:09.405Z,1.17
2023-04-23T14:08:36.912Z,0.60
2023-04-23T14:11:04.671Z,1.10
2023-04-23T14:13:32.570Z,0.52
2023-04-23T14:16:02.033Z,2.40
2023-04-23T14:18:30.802Z,1.00
2023-04-23T14:20:57.422Z,0.95
2023-04-23T14:23:24.077Z,1.25
2023-04-23T14:26:04.904Z,0.85
2023-04-23T14:28:45.998Z,0.60
2023-04-23T14:31:12.869Z,0.63
2023-04-23T14:33:39.496Z,1.15
2023-04-23T14:36:06.269Z,0.60
2023-04-23T14:38:32.918Z,0.50
2023-04-23T14:40:59.497Z,0.55
2023-04-23T14:43:26.149Z,1.67
2023-04-23T14:45:52.900Z,1.95
2023-04-23T14:48:20.029Z,0.68
2023-04-23T14:50:47.000Z,1.23
2023-04-23T14:53:13.548Z,0.60
2023-04-23T14:55:42.921Z,2.35
2023-04-23T14:58:09.678Z,1.25
2023-04-23T15:00:36.322Z,1.30
2023-04-23T15:03:08.628Z,2.67
2023-04-23T15:05:35.465Z,1.13
2023-04-23T15:08:02.081Z,2.40
2023-04-23T15:10:28.676Z,2.03
2023-04-23T15:13:03.539Z,2.88
2023-04-23T15:15:44.271Z,2.17
2023-04-23T15:18:14.167Z,1.60
2023-04-23T15:20:41.487Z,1.45
2023-04-23T15:23:08.332Z,2.33
2023-04-23T15:25:35.759Z,4.13
2023-04-23T15:28:03.137Z,2.08
2023-04-23T15:30:30.173Z,1.27
2023-04-23T15:32:57.017Z,3.53
2023-04-23T15:35:24.872Z,1.60
2023-04-23T15:37:51.579Z,3.10
2023-04-23T15:40:18.667Z,1.75
2023-04-23T15:42:45.661Z,1.55
2023-04-23T15:45:12.701Z,1.67
2023-04-23T15:47:39.728Z,1.63
2023-04-23T15:50:06.876Z,1.95
2023-04-23T15:52:33.695Z,1.58
2023-04-23T15:55:01.049Z,1.38
2023-04-23T15:57:27.758Z,4.10
2023-04-23T15:59:55.772Z,1.58
2023-04-23T16:02:22.945Z,1.95
2023-04-23T16:04:52.478Z,1.77
2023-04-23T16:07:19.191Z,4.65
2023-04-23T16:09:45.894Z,4.45
2023-04-23T16:12:12.867Z,1.27
2023-04-23T16:14:40.425Z,2.15
2023-04-23T16:17:07.348Z,5.93
2023-04-23T16:19:34.289Z,1.23
2023-04-23T16:22:01.350Z,2.20
2023-04-23T16:24:29.147Z,1.92
2023-04-23T16:26:55.889Z,2.13
2023-04-23T16:29:23.169Z,2.30
2023-04-23T16:31:50.245Z,1.45
2023-04-23T16:34:17.181Z,1.27
2023-04-23T16:36:44.053Z,1.42
2023-04-23T16:39:11.670Z,2.83
2023-04-23T16:41:38.527Z,1.42
2023-04-23T16:44:05.438Z,1.13
2023-04-23T16:46:32.310Z,1.55
2023-04-23T16:48:59.673Z,1.75
2023-04-23T16:51:27.160Z,3.40
2023-04-23T16:53:54.151Z,1.83
2023-04-23T16:56:21.217Z,1.90
2023-04-23T16:58:47.989Z,1.98
2023-04-23T17:01:16.628Z,3.15
2023-04-23T17:03:44.867Z,3.28
2023-04-23T17:06:27.146Z,2.40
2023-04-23T17:08:55.007Z,3.65
2023-04-23T17:11:23.146Z,2.50
2023-04-23T17:13:49.965Z,4.57
2023-04-23T17:16:16.772Z,3.45
2023-04-23T17:18:43.479Z,2.28
2023-04-23T17:21:10.888Z,4.35
2023-04-23T17:23:37.823Z,3.03
2023-04-23T17:26:04.536Z,3.65
2023-04-23T17:28:31.171Z,5.90
2023-04-23T17:30:58.184Z,3.10
2023-04-23T17:33:25.190Z,3.55
2023-04-23T17:35:53.388Z,5.45
2023-04-23T17:38:21.024Z,3.10
2023-04-23T17:40:52.586Z,2.80
2023-04-23T17:43:20.155Z,3.28
2023-04-23T17:45:47.692Z,3.53
2023-04-23T17:48:15.397Z,2.55
2023-04-23T17:50:42.665Z,3.60
2023-04-23T17:53:10.483Z,4.90
2023-04-23T17:55:37.175Z,3.22
2023-04-23T17:58:05.882Z,3.90
2023-04-23T18:00:37.106Z,2.42
2023-04-23T18:03:04.364Z,2.80
2023-04-23T18:05:31.824Z,4.25
2023-04-23T18:07:58.688Z,4.85
2023-04-23T18:10:25.437Z,3.58
2023-04-23T18:12:52.221Z,2.35
2023-04-23T18:15:19.086Z,2.90
2023-04-23T18:17:47.364Z,1.92
2023-04-23T18:20:14.465Z,3.08
2023-04-23T18:22:42.690Z,2.38
2023-04-23T18:25:10.212Z,3.72
2023-04-23T18:27:37.001Z,5.43
2023-04-23T18:30:05.877Z,5.45
2023-04-23T18:32:40.070Z,5.55
2023-04-23T18:35:08.246Z,4.15
2023-04-23T18:37:46.994Z,3.85
2023-04-23T18:40:13.721Z,4.13
2023-04-23T18:42:40.675Z,7.18
2023-04-23T18:45:08.106Z,4.15
2023-04-23T18:47:46.742Z,3.45
2023-04-23T18:50:41.707Z,3.15
2023-04-23T18:53:08.330Z,3.33
2023-04-23T18:55:35.532Z,3.42
2023-04-23T18:58:02.241Z,3.45
2023-04-23T19:00:29.406Z,4.95
2023-04-23T19:02:56.180Z,3.70
2023-04-23T19:05:22.987Z,3.50
2023-04-23T19:07:49.770Z,3.03
2023-04-23T19:10:16.885Z,6.68
2023-04-23T19:12:44.360Z,3.03
2023-04-23T19:15:11.603Z,3.80
2023-04-23T19:17:38.676Z,4.10
2023-04-23T19:20:09.532Z,3.28
2023-04-23T19:22:36.192Z,3.10
2023-04-23T19:25:02.943Z,3.35
2023-04-23T19:27:29.582Z,3.20
2023-04-23T19:29:56.820Z,3.75
2023-04-23T19:32:23.666Z,3.85
2023-04-23T19:34:50.410Z,3.10
2023-04-23T19:37:17.119Z,3.25
2023-04-23T19:39:43.891Z,4.70
2023-04-23T19:42:11.425Z,3.03
2023-04-23T19:44:37.998Z,4.90
2023-04-23T19:47:05.493Z,4.40
2023-04-23T19:49:32.272Z,3.47
2023-04-23T19:52:01.929Z,3.80
2023-04-23T19:54:28.506Z,3.03
2023-04-23T19:56:55.109Z,3.33
2023-04-23T19:59:22.782Z,3.38
2023-04-23T20:01:49.675Z,3.72
2023-04-23T20:04:16.551Z,4.63
2023-04-23T20:06:43.499Z,3.38
2023-04-23T20:09:18.094Z,5.15
2023-04-23T20:11:48.245Z,4.15
2023-04-23T20:14:15.304Z,3.05
2023-04-23T20:16:42.084Z,3.17
2023-04-23T20:19:11.885Z,3.40
2023-04-23T20:21:39.223Z,6.85
2023-04-23T20:24:10.051Z,2.90
2023-04-23T20:26:37.682Z,2.97
2023-04-23T20:29:04.940Z,4.03
2023-04-23T20:31:32.343Z,2.45
2023-04-23T20:33:59.234Z,3.05
2023-04-23T20:36:29.103Z,3.50
2023-04-23T20:38:59.547Z,3.25
2023-04-23T20:41:30.197Z,3.63
2023-04-23T20:43:58.414Z,3.42
2023-04-23T20:46:26.415Z,2.42
2023-04-23T20:48:54.227Z,3.05
2023-04-23T20:51:23.896Z,3.22
2023-04-23T20:53:51.761Z,2.60
2023-04-23T20:56:19.027Z,2.67
2023-04-23T20:58:45.756Z,2.80
2023-04-23T21:01:12.432Z,3.60
2023-04-23T21:03:40.075Z,3.55
2023-04-23T21:06:09.474Z,3.85
2023-04-23T21:08:38.967Z,2.28
2023-04-23T21:11:09.996Z,4.25
2023-04-23T21:13:37.648Z,3.35
2023-04-23T21:16:04.646Z,2.53
2023-04-23T21:18:31.639Z,3.00
2023-04-23T21:20:58.732Z,2.50
2023-04-23T21:23:25.414Z,2.53
2023-04-23T21:25:52.713Z,3.05
2023-04-23T21:28:19.630Z,5.28
2023-04-23T21:30:49.747Z,3.00
2023-04-23T21:33:17.627Z,2.17
2023-04-23T21:35:44.554Z,3.70
2023-04-23T21:38:12.179Z,3.50
2023-04-23T21:40:39.868Z,4.97
2023-04-23T21:43:07.388Z,3.25
2023-04-23T21:45:34.328Z,3.42
2023-04-23T21:48:01.824Z,6.90
2023-04-23T21:50:31.001Z,6.05
2023-04-23T21:53:03.243Z,2.90
2023-04-23T21:55:31.670Z,5.97
2023-04-23T21:58:09.866Z,4.93
2023-04-23T22:00:44.330Z,3.25
2023-04-23T22:03:12.018Z,3.75
2023-04-23T22:05:41.378Z,2.65
2023-04-23T22:08:09.801Z,2.03
2023-04-23T22:10:42.862Z,5.18
2023-04-23T22:13:10.302Z,4.60
2023-04-23T22:15:37.202Z,7.43
2023-04-23T22:18:04.087Z,6.57
2023-04-23T22:20:30.869Z,7.10
2023-04-23T22:22:57.637Z,9.38
2023-04-23T22:25:24.336Z,9.55
2023-04-23T22:27:50.980Z,7.13
2023-04-23T22:30:17.725Z,11.98
2023-04-23T22:32:44.981Z,8.95
2023-04-23T22:35:11.937Z,9.55
2023-04-23T22:37:39.500Z,11.07
2023-04-23T22:40:09.901Z,4.05
2023-04-23T22:42:37.483Z,2.60
2023-04-23T22:45:04.907Z,2.58
2023-04-23T22:47:31.853Z,3.95
2023-04-23T22:49:59.013Z,4.35
2023-04-23T22:52:26.101Z,2.20
2023-04-23T22:54:55.087Z,3.20
2023-04-23T22:57:22.733Z,3.40
2023-04-23T22:59:49.588Z,2.05
2023-04-23T23:02:16.687Z,3.38
2023-04-23T23:04:43.478Z,2.42
2023-04-23T23:07:10.509Z,6.60
2023-04-23T23:09:37.307Z,1.88
2023-04-23T23:12:04.964Z,1.70
2023-04-23T23:14:33.392Z,1.98
2023-04-23T23:17:00.125Z,2.78
2023-04-23T23:19:30.962Z,2.47
2023-04-23T23:21:57.818Z,2.28
2023-04-23T23:24:24.612Z,2.65
2023-04-23T23:26:51.449Z,4.28
2023-04-23T23:29:18.145Z,3.38
2023-04-23T23:31:45.180Z,2.58
2023-04-23T23:34:12.127Z,1.77
2023-04-23T23:36:39.336Z,3.63
2023-04-23T23:39:06.941Z,4.32
2023-04-23T23:41:33.662Z,3.40
2023-04-23T23:44:00.395Z,4.60
2023-04-23T23:46:27.123Z,4.22
2023-04-23T23:48:54.428Z,5.18
2023-04-23T23:51:21.150Z,3.47
2023-04-23T23:53:47.710Z,4.43
2023-04-23T23:56:15.283Z,5.28
2023-04-23T23:58:42.116Z,4.68
